sensor_id;sensor_type;location;lat;lon;timestamp;P1;durP1;ratioP1;P2;durP2;ratioP2
17598;SDS011;8918;52.092;5.232;2024-01-25T00:00:47;26.97;;;5.00;;
17598;SDS011;8918;52.092;5.232;2024-01-25T00:03:13;24.10;;;5.00;;
17598;SDS011;8918;52.092;5.232;2024-01-25T00:05:38;28.23;;;5.53;;
17598;SDS011;8918;52.092;5.232;2024-01-25T00:08:04;29.80;;;5.53;;
17598;SDS011;8918;52.092;5.232;2024-01-25T00:10:30;25.23;;;5.20;;
17598;SDS011;8918;52.092;5.232;2024-01-25T00:12:55;23.97;;;4.60;;
17598;SDS011;8918;52.092;5.232;2024-01-25T00:15:21;22.97;;;5.17;;
17598;SDS011;8918;52.092;5.232;2024-01-25T00:17:47;27.73;;;4.60;;
17598;SDS011;8918;52.092;5.232;2024-01-25T00:20:13;24.40;;;4.90;;
17598;SDS011;8918;52.092;5.232;2024-01-25T00:22:39;32.80;;;5.23;;
17598;SDS011;8918;52.092;5.232;2024-01-25T00:25:05;22.03;;;5.27;;
17598;SDS011;8918;52.092;5.232;2024-01-25T00:27:31;29.70;;;5.17;;
17598;SDS011;8918;52.092;5.232;2024-01-25T00:29:56;24.23;;;5.37;;
17598;SDS011;8918;52.092;5.232;2024-01-25T00:32:22;24.43;;;4.87;;
17598;SDS011;8918;52.092;5.232;2024-01-25T00:34:48;27.27;;;5.60;;
17598;SDS011;8918;52.092;5.232;2024-01-25T00:37:14;29.37;;;5.10;;
17598;SDS011;8918;52.092;5.232;2024-01-25T00:39:39;29.47;;;5.13;;
17598;SDS011;8918;52.092;5.232;2024-01-25T00:42:05;35.73;;;5.80;;
17598;SDS011;8918;52.092;5.232;2024-01-25T00:44:32;25.37;;;5.80;;
17598;SDS011;8918;52.092;5.232;2024-01-25T00:46:58;21.77;;;4.67;;
17598;SDS011;8918;52.092;5.232;2024-01-25T00:49:24;27.13;;;5.63;;
17598;SDS011;8918;52.092;5.232;2024-01-25T00:51:50;21.10;;;5.10;;
17598;SDS011;8918;52.092;5.232;2024-01-25T00:54:24;30.10;;;5.10;;
17598;SDS011;8918;52.092;5.232;2024-01-25T00:56:50;24.40;;;4.63;;
17598;SDS011;8918;52.092;5.232;2024-01-25T00:59:17;25.80;;;4.90;;
17598;SDS011;8918;52.092;5.232;2024-01-25T01:01:44;31.90;;;5.07;;
17598;SDS011;8918;52.092;5.232;2024-01-25T01:04:13;30.13;;;5.40;;
17598;SDS011;8918;52.092;5.232;2024-01-25T01:06:41;32.40;;;6.50;;
17598;SDS011;8918;52.092;5.232;2024-01-25T01:09:07;27.63;;;5.03;;
17598;SDS011;8918;52.092;5.232;2024-01-25T01:11:33;31.40;;;6.13;;
17598;SDS011;8918;52.092;5.232;2024-01-25T01:13:59;31.57;;;6.00;;
17598;SDS011;8918;52.092;5.232;2024-01-25T01:16:24;28.67;;;5.10;;
17598;SDS011;8918;52.092;5.232;2024-01-25T01:18:51;22.50;;;4.93;;
17598;SDS011;8918;52.092;5.232;2024-01-25T01:21:16;30.07;;;6.00;;
17598;SDS011;8918;52.092;5.232;2024-01-25T01:23:42;28.73;;;5.87;;
17598;SDS011;8918;52.092;5.232;2024-01-25T01:26:07;23.97;;;4.67;;
17598;SDS011;8918;52.092;5.232;2024-01-25T01:28:33;32.90;;;5.57;;
17598;SDS011;8918;52.092;5.232;2024-01-25T01:30:59;29.03;;;5.77;;
17598;SDS011;8918;52.092;5.232;2024-01-25T01:33:24;31.13;;;4.87;;
17598;SDS011;8918;52.092;5.232;2024-01-25T01:35:50;26.53;;;5.43;;
17598;SDS011;8918;52.092;5.232;2024-01-25T01:38:16;28.10;;;5.27;;
17598;SDS011;8918;52.092;5.232;2024-01-25T01:40:44;34.17;;;5.33;;
17598;SDS011;8918;52.092;5.232;2024-01-25T01:43:17;24.87;;;5.57;;
17598;SDS011;8918;52.092;5.232;2024-01-25T01:45:45;30.13;;;5.50;;
17598;SDS011;8918;52.092;5.232;2024-01-25T01:48:12;35.40;;;5.97;;
17598;SDS011;8918;52.092;5.232;2024-01-25T01:50:38;26.13;;;4.87;;
17598;SDS011;8918;52.092;5.232;2024-01-25T01:53:04;31.63;;;5.27;;
17598;SDS011;8918;52.092;5.232;2024-01-25T01:55:30;31.53;;;4.70;;
17598;SDS011;8918;52.092;5.232;2024-01-25T01:57:57;25.73;;;5.30;;
17598;SDS011;8918;52.092;5.232;2024-01-25T02:00:24;29.67;;;5.37;;
17598;SDS011;8918;52.092;5.232;2024-01-25T02:02:52;24.40;;;5.03;;
17598;SDS011;8918;52.092;5.232;2024-01-25T02:05:18;38.20;;;6.07;;
17598;SDS011;8918;52.092;5.232;2024-01-25T02:07:43;24.20;;;4.67;;
17598;SDS011;8918;52.092;5.232;2024-01-25T02:10:10;28.00;;;5.47;;
17598;SDS011;8918;52.092;5.232;2024-01-25T02:12:36;26.83;;;5.70;;
17598;SDS011;8918;52.092;5.232;2024-01-25T02:15:03;27.90;;;4.87;;
17598;SDS011;8918;52.092;5.232;2024-01-25T02:17:29;22.70;;;4.90;;
17598;SDS011;8918;52.092;5.232;2024-01-25T02:19:55;25.07;;;5.13;;
17598;SDS011;8918;52.092;5.232;2024-01-25T02:22:21;34.03;;;5.90;;
17598;SDS011;8918;52.092;5.232;2024-01-25T02:24:46;34.30;;;5.63;;
17598;SDS011;8918;52.092;5.232;2024-01-25T02:27:12;30.83;;;5.60;;
17598;SDS011;8918;52.092;5.232;2024-01-25T02:29:37;36.37;;;6.20;;
17598;SDS011;8918;52.092;5.232;2024-01-25T02:32:03;29.83;;;5.90;;
17598;SDS011;8918;52.092;5.232;2024-01-25T02:34:29;27.50;;;5.80;;
17598;SDS011;8918;52.092;5.232;2024-01-25T02:36:55;36.87;;;5.80;;
17598;SDS011;8918;52.092;5.232;2024-01-25T02:39:20;26.00;;;5.57;;
17598;SDS011;8918;52.092;5.232;2024-01-25T02:41:46;31.43;;;6.00;;
17598;SDS011;8918;52.092;5.232;2024-01-25T02:44:11;28.60;;;5.43;;
17598;SDS011;8918;52.092;5.232;2024-01-25T02:46:37;26.87;;;4.83;;
17598;SDS011;8918;52.092;5.232;2024-01-25T02:49:03;25.87;;;4.97;;
17598;SDS011;8918;52.092;5.232;2024-01-25T02:51:29;25.63;;;5.00;;
17598;SDS011;8918;52.092;5.232;2024-01-25T02:53:54;30.23;;;5.13;;
17598;SDS011;8918;52.092;5.232;2024-01-25T02:56:20;22.30;;;4.70;;
17598;SDS011;8918;52.092;5.232;2024-01-25T02:58:46;25.03;;;5.70;;
17598;SDS011;8918;52.092;5.232;2024-01-25T03:01:11;31.53;;;5.63;;
17598;SDS011;8918;52.092;5.232;2024-01-25T03:03:37;26.57;;;5.77;;
17598;SDS011;8918;52.092;5.232;2024-01-25T03:06:05;31.40;;;5.03;;
17598;SDS011;8918;52.092;5.232;2024-01-25T03:08:31;25.80;;;4.77;;
17598;SDS011;8918;52.092;5.232;2024-01-25T03:10:57;29.30;;;4.97;;
17598;SDS011;8918;52.092;5.232;2024-01-25T03:13:22;28.47;;;5.47;;
17598;SDS011;8918;52.092;5.232;2024-01-25T03:15:48;20.83;;;4.67;;
17598;SDS011;8918;52.092;5.232;2024-01-25T03:18:14;29.63;;;5.43;;
17598;SDS011;8918;52.092;5.232;2024-01-25T03:20:39;27.23;;;6.37;;
17598;SDS011;8918;52.092;5.232;2024-01-25T03:23:05;26.13;;;5.13;;
17598;SDS011;8918;52.092;5.232;2024-01-25T03:25:30;22.33;;;5.00;;
17598;SDS011;8918;52.092;5.232;2024-01-25T03:27:56;21.43;;;4.60;;
17598;SDS011;8918;52.092;5.232;2024-01-25T03:30:22;33.20;;;5.60;;
17598;SDS011;8918;52.092;5.232;2024-01-25T03:32:48;22.23;;;4.63;;
17598;SDS011;8918;52.092;5.232;2024-01-25T03:35:13;27.93;;;4.70;;
17598;SDS011;8918;52.092;5.232;2024-01-25T03:37:39;26.37;;;5.23;;
17598;SDS011;8918;52.092;5.232;2024-01-25T03:40:05;24.13;;;4.90;;
17598;SDS011;8918;52.092;5.232;2024-01-25T03:42:31;31.70;;;4.83;;
17598;SDS011;8918;52.092;5.232;2024-01-25T03:44:56;33.87;;;5.43;;
17598;SDS011;8918;52.092;5.232;2024-01-25T03:47:22;28.07;;;5.20;;
17598;SDS011;8918;52.092;5.232;2024-01-25T03:49:48;29.57;;;5.83;;
17598;SDS011;8918;52.092;5.232;2024-01-25T03:52:13;20.87;;;4.53;;
17598;SDS011;8918;52.092;5.232;2024-01-25T03:54:39;26.00;;;5.37;;
17598;SDS011;8918;52.092;5.232;2024-01-25T03:57:05;20.87;;;4.23;;
17598;SDS011;8918;52.092;5.232;2024-01-25T03:59:30;20.43;;;4.97;;
17598;SDS011;8918;52.092;5.232;2024-01-25T04:01:56;23.90;;;4.80;;
17598;SDS011;8918;52.092;5.232;2024-01-25T04:04:22;27.77;;;6.00;;
17598;SDS011;8918;52.092;5.232;2024-01-25T04:06:48;28.07;;;4.70;;
17598;SDS011;8918;52.092;5.232;2024-01-25T04:09:13;25.97;;;4.90;;
17598;SDS011;8918;52.092;5.232;2024-01-25T04:11:40;24.87;;;5.10;;
17598;SDS011;8918;52.092;5.232;2024-01-25T04:14:06;24.53;;;4.87;;
17598;SDS011;8918;52.092;5.232;2024-01-25T04:16:32;26.03;;;4.73;;
17598;SDS011;8918;52.092;5.232;2024-01-25T04:18:58;34.60;;;5.67;;
17598;SDS011;8918;52.092;5.232;2024-01-25T04:21:24;31.17;;;5.23;;
17598;SDS011;8918;52.092;5.232;2024-01-25T04:23:53;18.13;;;4.60;;
17598;SDS011;8918;52.092;5.232;2024-01-25T04:26:18;26.27;;;5.30;;
17598;SDS011;8918;52.092;5.232;2024-01-25T04:28:44;26.60;;;5.27;;
17598;SDS011;8918;52.092;5.232;2024-01-25T04:31:09;19.20;;;4.57;;
17598;SDS011;8918;52.092;5.232;2024-01-25T04:33:35;25.10;;;4.77;;
17598;SDS011;8918;52.092;5.232;2024-01-25T04:36:03;29.93;;;5.20;;
17598;SDS011;8918;52.092;5.232;2024-01-25T04:38:29;17.93;;;4.63;;
17598;SDS011;8918;52.092;5.232;2024-01-25T04:40:54;24.87;;;4.27;;
17598;SDS011;8918;52.092;5.232;2024-01-25T04:43:20;18.53;;;4.33;;
17598;SDS011;8918;52.092;5.232;2024-01-25T04:45:45;24.20;;;4.33;;
17598;SDS011;8918;52.092;5.232;2024-01-25T04:48:12;24.43;;;5.00;;
17598;SDS011;8918;52.092;5.232;2024-01-25T04:50:37;22.93;;;4.47;;
17598;SDS011;8918;52.092;5.232;2024-01-25T04:53:04;26.00;;;4.73;;
17598;SDS011;8918;52.092;5.232;2024-01-25T04:55:29;25.17;;;5.37;;
17598;SDS011;8918;52.092;5.232;2024-01-25T04:57:55;31.07;;;4.93;;
17598;SDS011;8918;52.092;5.232;2024-01-25T05:00:21;28.43;;;5.00;;
17598;SDS011;8918;52.092;5.232;2024-01-25T05:02:48;23.97;;;5.57;;
17598;SDS011;8918;52.092;5.232;2024-01-25T05:05:14;29.50;;;5.03;;
17598;SDS011;8918;52.092;5.232;2024-01-25T05:07:40;24.13;;;5.37;;
17598;SDS011;8918;52.092;5.232;2024-01-25T05:10:06;26.17;;;5.27;;
17598;SDS011;8918;52.092;5.232;2024-01-25T05:12:31;28.10;;;5.07;;
17598;SDS011;8918;52.092;5.232;2024-01-25T05:14:57;25.43;;;4.87;;
17598;SDS011;8918;52.092;5.232;2024-01-25T05:17:23;25.17;;;5.10;;
17598;SDS011;8918;52.092;5.232;2024-01-25T05:19:49;21.97;;;5.13;;
17598;SDS011;8918;52.092;5.232;2024-01-25T05:22:14;24.07;;;4.80;;
17598;SDS011;8918;52.092;5.232;2024-01-25T05:24:41;27.33;;;5.57;;
17598;SDS011;8918;52.092;5.232;2024-01-25T05:27:06;36.10;;;5.70;;
17598;SDS011;8918;52.092;5.232;2024-01-25T05:29:32;26.03;;;5.30;;
17598;SDS011;8918;52.092;5.232;2024-01-25T05:31:58;28.17;;;6.03;;
17598;SDS011;8918;52.092;5.232;2024-01-25T05:34:23;37.07;;;8.13;;
17598;SDS011;8918;52.092;5.232;2024-01-25T05:36:49;25.67;;;5.40;;
17598;SDS011;8918;52.092;5.232;2024-01-25T05:39:15;32.37;;;6.20;;
17598;SDS011;8918;52.092;5.232;2024-01-25T05:41:41;27.20;;;5.30;;
17598;SDS011;8918;52.092;5.232;2024-01-25T05:44:06;29.23;;;5.67;;
17598;SDS011;8918;52.092;5.232;2024-01-25T05:46:32;26.67;;;5.23;;
17598;SDS011;8918;52.092;5.232;2024-01-25T05:48:57;24.27;;;5.33;;
17598;SDS011;8918;52.092;5.232;2024-01-25T05:51:23;26.50;;;5.93;;
17598;SDS011;8918;52.092;5.232;2024-01-25T05:53:49;29.87;;;5.77;;
17598;SDS011;8918;52.092;5.232;2024-01-25T05:56:14;26.97;;;5.83;;
17598;SDS011;8918;52.092;5.232;2024-01-25T05:58:40;33.37;;;5.90;;
17598;SDS011;8918;52.092;5.232;2024-01-25T06:01:06;26.37;;;5.93;;
17598;SDS011;8918;52.092;5.232;2024-01-25T06:03:32;31.80;;;5.70;;
17598;SDS011;8918;52.092;5.232;2024-01-25T06:05:58;27.67;;;5.83;;
17598;SDS011;8918;52.092;5.232;2024-01-25T06:08:23;25.73;;;4.63;;
17598;SDS011;8918;52.092;5.232;2024-01-25T06:10:49;28.83;;;6.67;;
17598;SDS011;8918;52.092;5.232;2024-01-25T06:13:15;25.93;;;5.90;;
17598;SDS011;8918;52.092;5.232;2024-01-25T06:15:40;30.67;;;6.27;;
17598;SDS011;8918;52.092;5.232;2024-01-25T06:18:06;27.67;;;5.50;;
17598;SDS011;8918;52.092;5.232;2024-01-25T06:20:32;20.47;;;5.10;;
17598;SDS011;8918;52.092;5.232;2024-01-25T06:22:58;24.50;;;5.57;;
17598;SDS011;8918;52.092;5.232;2024-01-25T06:25:23;22.90;;;6.13;;
17598;SDS011;8918;52.092;5.232;2024-01-25T06:27:49;23.70;;;5.07;;
17598;SDS011;8918;52.092;5.232;2024-01-25T06:30:14;28.47;;;5.87;;
17598;SDS011;8918;52.092;5.232;2024-01-25T06:32:40;29.83;;;6.50;;
17598;SDS011;8918;52.092;5.232;2024-01-25T06:35:06;23.70;;;6.30;;
17598;SDS011;8918;52.092;5.232;2024-01-25T06:37:32;26.33;;;6.00;;
17598;SDS011;8918;52.092;5.232;2024-01-25T06:39:57;24.93;;;5.43;;
17598;SDS011;8918;52.092;5.232;2024-01-25T06:42:23;25.47;;;5.30;;
17598;SDS011;8918;52.092;5.232;2024-01-25T06:44:49;27.97;;;5.90;;
17598;SDS011;8918;52.092;5.232;2024-01-25T06:47:14;32.20;;;5.60;;
17598;SDS011;8918;52.092;5.232;2024-01-25T06:49:40;24.70;;;5.37;;
17598;SDS011;8918;52.092;5.232;2024-01-25T06:52:06;21.40;;;4.93;;
17598;SDS011;8918;52.092;5.232;2024-01-25T06:54:31;22.83;;;5.17;;
17598;SDS011;8918;52.092;5.232;2024-01-25T06:56:57;21.10;;;6.37;;
17598;SDS011;8918;52.092;5.232;2024-01-25T06:59:23;29.70;;;6.80;;
17598;SDS011;8918;52.092;5.232;2024-01-25T07:01:48;23.07;;;6.47;;
17598;SDS011;8918;52.092;5.232;2024-01-25T07:04:14;33.50;;;6.97;;
17598;SDS011;8918;52.092;5.232;2024-01-25T07:06:40;19.63;;;5.87;;
17598;SDS011;8918;52.092;5.232;2024-01-25T07:09:06;31.33;;;7.00;;
17598;SDS011;8918;52.092;5.232;2024-01-25T07:11:31;31.10;;;7.10;;
17598;SDS011;8918;52.092;5.232;2024-01-25T07:13:57;35.40;;;7.50;;
17598;SDS011;8918;52.092;5.232;2024-01-25T07:16:22;33.10;;;7.77;;
17598;SDS011;8918;52.092;5.232;2024-01-25T07:18:48;29.60;;;7.73;;
17598;SDS011;8918;52.092;5.232;2024-01-25T07:21:14;27.93;;;6.80;;
17598;SDS011;8918;52.092;5.232;2024-01-25T07:23:40;32.67;;;8.00;;
17598;SDS011;8918;52.092;5.232;2024-01-25T07:26:05;30.03;;;8.17;;
17598;SDS011;8918;52.092;5.232;2024-01-25T07:28:31;35.53;;;8.50;;
17598;SDS011;8918;52.092;5.232;2024-01-25T07:30:56;27.37;;;7.20;;
17598;SDS011;8918;52.092;5.232;2024-01-25T07:33:22;30.63;;;7.73;;
17598;SDS011;8918;52.092;5.232;2024-01-25T07:35:48;28.57;;;8.20;;
17598;SDS011;8918;52.092;5.232;2024-01-25T07:38:16;25.77;;;7.50;;
17598;SDS011;8918;52.092;5.232;2024-01-25T07:40:42;32.50;;;8.53;;
17598;SDS011;8918;52.092;5.232;2024-01-25T07:43:08;27.37;;;11.20;;
17598;SDS011;8918;52.092;5.232;2024-01-25T07:45:33;38.40;;;14.00;;
17598;SDS011;8918;52.092;5.232;2024-01-25T07:47:59;48.57;;;20.93;;
17598;SDS011;8918;52.092;5.232;2024-01-25T07:50:25;51.77;;;26.90;;
17598;SDS011;8918;52.092;5.232;2024-01-25T07:52:50;48.87;;;22.67;;
17598;SDS011;8918;52.092;5.232;2024-01-25T07:55:16;60.37;;;28.10;;
17598;SDS011;8918;52.092;5.232;2024-01-25T07:57:42;67.70;;;35.00;;
17598;SDS011;8918;52.092;5.232;2024-01-25T08:00:08;75.00;;;36.27;;
17598;SDS011;8918;52.092;5.232;2024-01-25T08:02:35;68.70;;;35.87;;
17598;SDS011;8918;52.092;5.232;2024-01-25T08:05:01;67.00;;;38.27;;
17598;SDS011;8918;52.092;5.232;2024-01-25T08:07:28;57.17;;;29.37;;
17598;SDS011;8918;52.092;5.232;2024-01-25T08:09:54;52.20;;;23.37;;
17598;SDS011;8918;52.092;5.232;2024-01-25T08:12:23;49.20;;;20.73;;
17598;SDS011;8918;52.092;5.232;2024-01-25T08:14:49;41.47;;;18.60;;
17598;SDS011;8918;52.092;5.232;2024-01-25T08:17:16;39.10;;;13.47;;
17598;SDS011;8918;52.092;5.232;2024-01-25T08:19:41;33.93;;;13.73;;
17598;SDS011;8918;52.092;5.232;2024-01-25T08:22:07;39.30;;;14.00;;
17598;SDS011;8918;52.092;5.232;2024-01-25T08:24:33;29.93;;;10.87;;
17598;SDS011;8918;52.092;5.232;2024-01-25T08:26:59;39.73;;;12.20;;
17598;SDS011;8918;52.092;5.232;2024-01-25T08:29:25;35.73;;;11.60;;
17598;SDS011;8918;52.092;5.232;2024-01-25T08:31:50;35.27;;;11.00;;
17598;SDS011;8918;52.092;5.232;2024-01-25T08:34:16;27.23;;;8.73;;
17598;SDS011;8918;52.092;5.232;2024-01-25T08:36:41;27.20;;;8.73;;
17598;SDS011;8918;52.092;5.232;2024-01-25T08:39:07;26.63;;;8.17;;
17598;SDS011;8918;52.092;5.232;2024-01-25T08:41:33;28.30;;;9.33;;
17598;SDS011;8918;52.092;5.232;2024-01-25T08:43:59;33.37;;;10.17;;
17598;SDS011;8918;52.092;5.232;2024-01-25T08:46:25;38.03;;;9.80;;
17598;SDS011;8918;52.092;5.232;2024-01-25T08:48:51;30.77;;;9.30;;
17598;SDS011;8918;52.092;5.232;2024-01-25T08:51:17;28.00;;;9.73;;
17598;SDS011;8918;52.092;5.232;2024-01-25T08:53:43;27.03;;;8.37;;
17598;SDS011;8918;52.092;5.232;2024-01-25T08:56:08;29.87;;;8.70;;
17598;SDS011;8918;52.092;5.232;2024-01-25T08:58:34;26.07;;;6.93;;
17598;SDS011;8918;52.092;5.232;2024-01-25T09:01:00;26.70;;;6.80;;
17598;SDS011;8918;52.092;5.232;2024-01-25T09:03:25;31.70;;;7.50;;
17598;SDS011;8918;52.092;5.232;2024-01-25T09:05:51;27.23;;;7.07;;
17598;SDS011;8918;52.092;5.232;2024-01-25T09:08:17;27.73;;;7.80;;
17598;SDS011;8918;52.092;5.232;2024-01-25T09:10:43;28.03;;;7.90;;
17598;SDS011;8918;52.092;5.232;2024-01-25T09:13:09;28.03;;;8.23;;
17598;SDS011;8918;52.092;5.232;2024-01-25T09:15:35;23.93;;;7.00;;
17598;SDS011;8918;52.092;5.232;2024-01-25T09:18:01;32.07;;;7.27;;
17598;SDS011;8918;52.092;5.232;2024-01-25T09:20:27;24.10;;;7.53;;
17598;SDS011;8918;52.092;5.232;2024-01-25T09:22:52;27.80;;;7.70;;
17598;SDS011;8918;52.092;5.232;2024-01-25T09:25:19;28.83;;;8.17;;
17598;SDS011;8918;52.092;5.232;2024-01-25T09:27:44;29.03;;;7.23;;
17598;SDS011;8918;52.092;5.232;2024-01-25T09:30:10;28.77;;;6.87;;
17598;SDS011;8918;52.092;5.232;2024-01-25T09:32:36;24.67;;;7.17;;
17598;SDS011;8918;52.092;5.232;2024-01-25T09:35:02;20.43;;;6.23;;
17598;SDS011;8918;52.092;5.232;2024-01-25T09:37:27;28.83;;;7.23;;
17598;SDS011;8918;52.092;5.232;2024-01-25T09:39:53;29.30;;;7.90;;
17598;SDS011;8918;52.092;5.232;2024-01-25T09:42:19;28.77;;;7.07;;
17598;SDS011;8918;52.092;5.232;2024-01-25T09:44:44;30.50;;;6.83;;
17598;SDS011;8918;52.092;5.232;2024-01-25T09:47:10;33.03;;;6.47;;
17598;SDS011;8918;52.092;5.232;2024-01-25T09:49:36;26.03;;;7.07;;
17598;SDS011;8918;52.092;5.232;2024-01-25T09:52:03;25.10;;;5.97;;
17598;SDS011;8918;52.092;5.232;2024-01-25T09:54:32;31.53;;;6.77;;
17598;SDS011;8918;52.092;5.232;2024-01-25T09:57:03;26.90;;;6.87;;
17598;SDS011;8918;52.092;5.232;2024-01-25T09:59:33;23.67;;;6.03;;
17598;SDS011;8918;52.092;5.232;2024-01-25T10:01:59;23.97;;;5.90;;
17598;SDS011;8918;52.092;5.232;2024-01-25T10:04:26;32.33;;;6.60;;
17598;SDS011;8918;52.092;5.232;2024-01-25T10:06:55;25.63;;;6.47;;
17598;SDS011;8918;52.092;5.232;2024-01-25T10:09:21;29.33;;;6.60;;
17598;SDS011;8918;52.092;5.232;2024-01-25T10:11:47;27.37;;;7.00;;
17598;SDS011;8918;52.092;5.232;2024-01-25T10:14:13;28.47;;;6.90;;
17598;SDS011;8918;52.092;5.232;2024-01-25T10:16:38;26.70;;;6.50;;
17598;SDS011;8918;52.092;5.232;2024-01-25T10:19:06;22.07;;;6.63;;
17598;SDS011;8918;52.092;5.232;2024-01-25T10:21:32;26.17;;;6.53;;
17598;SDS011;8918;52.092;5.232;2024-01-25T10:24:00;24.30;;;6.27;;
17598;SDS011;8918;52.092;5.232;2024-01-25T10:26:26;26.93;;;7.23;;
17598;SDS011;8918;52.092;5.232;2024-01-25T10:28:55;28.90;;;6.57;;
17598;SDS011;8918;52.092;5.232;2024-01-25T10:31:24;22.60;;;6.10;;
17598;SDS011;8918;52.092;5.232;2024-01-25T10:33:52;19.80;;;6.00;;
17598;SDS011;8918;52.092;5.232;2024-01-25T10:36:21;32.50;;;6.90;;
17598;SDS011;8918;52.092;5.232;2024-01-25T10:38:48;25.23;;;6.97;;
17598;SDS011;8918;52.092;5.232;2024-01-25T10:41:15;25.47;;;6.87;;
17598;SDS011;8918;52.092;5.232;2024-01-25T10:43:40;25.27;;;6.93;;
17598;SDS011;8918;52.092;5.232;2024-01-25T10:46:06;28.93;;;7.73;;
17598;SDS011;8918;52.092;5.232;2024-01-25T10:48:33;29.23;;;7.00;;
17598;SDS011;8918;52.092;5.232;2024-01-25T10:50:59;29.10;;;7.40;;
17598;SDS011;8918;52.092;5.232;2024-01-25T10:53:29;30.50;;;7.83;;
17598;SDS011;8918;52.092;5.232;2024-01-25T10:55:59;22.47;;;7.13;;
17598;SDS011;8918;52.092;5.232;2024-01-25T10:58:35;28.13;;;7.13;;
17598;SDS011;8918;52.092;5.232;2024-01-25T11:01:00;22.63;;;7.33;;
17598;SDS011;8918;52.092;5.232;2024-01-25T11:03:28;24.33;;;7.70;;
17598;SDS011;8918;52.092;5.232;2024-01-25T11:06:05;25.87;;;7.10;;
17598;SDS011;8918;52.092;5.232;2024-01-25T11:08:34;28.00;;;7.33;;
17598;SDS011;8918;52.092;5.232;2024-01-25T11:11:05;28.83;;;7.53;;
17598;SDS011;8918;52.092;5.232;2024-01-25T11:13:34;28.93;;;7.90;;
17598;SDS011;8918;52.092;5.232;2024-01-25T11:16:16;24.20;;;7.43;;
17598;SDS011;8918;52.092;5.232;2024-01-25T11:18:49;25.03;;;7.07;;
17598;SDS011;8918;52.092;5.232;2024-01-25T11:21:26;32.47;;;8.20;;
17598;SDS011;8918;52.092;5.232;2024-01-25T11:24:11;24.73;;;7.17;;
17598;SDS011;8918;52.092;5.232;2024-01-25T11:26:57;29.23;;;7.90;;
17598;SDS011;8918;52.092;5.232;2024-01-25T11:29:22;31.57;;;7.43;;
17598;SDS011;8918;52.092;5.232;2024-01-25T11:31:49;29.30;;;7.93;;
17598;SDS011;8918;52.092;5.232;2024-01-25T11:34:16;25.73;;;7.53;;
17598;SDS011;8918;52.092;5.232;2024-01-25T11:36:45;28.37;;;8.20;;
17598;SDS011;8918;52.092;5.232;2024-01-25T11:39:11;33.60;;;7.87;;
17598;SDS011;8918;52.092;5.232;2024-01-25T11:41:40;30.57;;;8.00;;
17598;SDS011;8918;52.092;5.232;2024-01-25T11:44:09;31.17;;;8.57;;
17598;SDS011;8918;52.092;5.232;2024-01-25T11:46:35;32.63;;;7.20;;
17598;SDS011;8918;52.092;5.232;2024-01-25T11:49:01;28.40;;;8.00;;
17598;SDS011;8918;52.092;5.232;2024-01-25T11:51:27;25.20;;;7.83;;
17598;SDS011;8918;52.092;5.232;2024-01-25T11:53:52;34.93;;;8.63;;
17598;SDS011;8918;52.092;5.232;2024-01-25T11:56:25;21.60;;;8.00;;
17598;SDS011;8918;52.092;5.232;2024-01-25T11:58:53;31.20;;;8.43;;
17598;SDS011;8918;52.092;5.232;2024-01-25T12:01:21;25.73;;;7.37;;
17598;SDS011;8918;52.092;5.232;2024-01-25T12:03:48;30.87;;;9.40;;
17598;SDS011;8918;52.092;5.232;2024-01-25T12:06:14;30.83;;;8.37;;
17598;SDS011;8918;52.092;5.232;2024-01-25T12:08:40;28.67;;;8.83;;
17598;SDS011;8918;52.092;5.232;2024-01-25T12:11:06;39.47;;;9.83;;
17598;SDS011;8918;52.092;5.232;2024-01-25T12:13:33;31.23;;;7.93;;
17598;SDS011;8918;52.092;5.232;2024-01-25T12:16:06;25.10;;;8.30;;
17598;SDS011;8918;52.092;5.232;2024-01-25T12:18:33;30.80;;;9.30;;
17598;SDS011;8918;52.092;5.232;2024-01-25T12:21:00;28.33;;;8.77;;
17598;SDS011;8918;52.092;5.232;2024-01-25T12:23:31;30.30;;;8.63;;
17598;SDS011;8918;52.092;5.232;2024-01-25T12:26:04;28.20;;;9.17;;
17598;SDS011;8918;52.092;5.232;2024-01-25T12:28:32;30.20;;;9.20;;
17598;SDS011;8918;52.092;5.232;2024-01-25T12:30:58;32.57;;;9.40;;
17598;SDS011;8918;52.092;5.232;2024-01-25T12:33:30;31.03;;;8.73;;
17598;SDS011;8918;52.092;5.232;2024-01-25T12:35:57;29.77;;;8.97;;
17598;SDS011;8918;52.092;5.232;2024-01-25T12:38:23;29.20;;;8.90;;
17598;SDS011;8918;52.092;5.232;2024-01-25T12:40:50;39.30;;;9.23;;
17598;SDS011;8918;52.092;5.232;2024-01-25T12:43:17;29.93;;;9.80;;
17598;SDS011;8918;52.092;5.232;2024-01-25T12:45:48;30.07;;;9.77;;
17598;SDS011;8918;52.092;5.232;2024-01-25T12:48:14;29.17;;;9.27;;
17598;SDS011;8918;52.092;5.232;2024-01-25T12:50:41;33.30;;;8.97;;
17598;SDS011;8918;52.092;5.232;2024-01-25T12:53:07;30.83;;;8.50;;
17598;SDS011;8918;52.092;5.232;2024-01-25T12:55:35;36.23;;;9.40;;
17598;SDS011;8918;52.092;5.232;2024-01-25T12:58:00;33.40;;;9.13;;
17598;SDS011;8918;52.092;5.232;2024-01-25T13:00:26;30.70;;;9.13;;
17598;SDS011;8918;52.092;5.232;2024-01-25T13:02:52;29.30;;;8.73;;
17598;SDS011;8918;52.092;5.232;2024-01-25T13:05:19;34.93;;;9.47;;
17598;SDS011;8918;52.092;5.232;2024-01-25T13:07:45;33.13;;;8.63;;
17598;SDS011;8918;52.092;5.232;2024-01-25T13:10:11;32.27;;;8.60;;
17598;SDS011;8918;52.092;5.232;2024-01-25T13:12:39;32.10;;;9.33;;
17598;SDS011;8918;52.092;5.232;2024-01-25T13:15:05;34.63;;;8.80;;
17598;SDS011;8918;52.092;5.232;2024-01-25T13:17:34;26.77;;;8.90;;
17598;SDS011;8918;52.092;5.232;2024-01-25T13:20:00;38.47;;;9.50;;
17598;SDS011;8918;52.092;5.232;2024-01-25T13:22:26;30.03;;;8.80;;
17598;SDS011;8918;52.092;5.232;2024-01-25T13:24:52;34.63;;;10.00;;
17598;SDS011;8918;52.092;5.232;2024-01-25T13:27:18;34.43;;;9.53;;
17598;SDS011;8918;52.092;5.232;2024-01-25T13:29:43;29.50;;;8.93;;
17598;SDS011;8918;52.092;5.232;2024-01-25T13:32:09;27.40;;;8.60;;
17598;SDS011;8918;52.092;5.232;2024-01-25T13:34:34;26.70;;;9.10;;
17598;SDS011;8918;52.092;5.232;2024-01-25T13:37:00;31.33;;;8.83;;
17598;SDS011;8918;52.092;5.232;2024-01-25T13:39:25;32.90;;;8.80;;
17598;SDS011;8918;52.092;5.232;2024-01-25T13:41:51;34.57;;;9.67;;
17598;SDS011;8918;52.092;5.232;2024-01-25T13:44:17;32.87;;;8.93;;
17598;SDS011;8918;52.092;5.232;2024-01-25T13:46:43;27.50;;;8.77;;
17598;SDS011;8918;52.092;5.232;2024-01-25T13:49:08;29.07;;;9.07;;
17598;SDS011;8918;52.092;5.232;2024-01-25T13:51:34;27.27;;;9.30;;
17598;SDS011;8918;52.092;5.232;2024-01-25T13:54:00;36.17;;;10.10;;
17598;SDS011;8918;52.092;5.232;2024-01-25T13:56:26;38.73;;;10.23;;
17598;SDS011;8918;52.092;5.232;2024-01-25T13:58:51;36.67;;;9.63;;
17598;SDS011;8918;52.092;5.232;2024-01-25T14:01:19;37.20;;;9.53;;
17598;SDS011;8918;52.092;5.232;2024-01-25T14:03:45;37.90;;;10.13;;
17598;SDS011;8918;52.092;5.232;2024-01-25T14:06:10;36.07;;;9.10;;
17598;SDS011;8918;52.092;5.232;2024-01-25T14:08:36;39.30;;;10.40;;
17598;SDS011;8918;52.092;5.232;2024-01-25T14:11:02;35.93;;;9.80;;
17598;SDS011;8918;52.092;5.232;2024-01-25T14:13:28;33.80;;;10.07;;
17598;SDS011;8918;52.092;5.232;2024-01-25T14:15:54;37.60;;;10.50;;
17598;SDS011;8918;52.092;5.232;2024-01-25T14:18:20;36.03;;;10.27;;
17598;SDS011;8918;52.092;5.232;2024-01-25T14:20:46;31.77;;;10.37;;
17598;SDS011;8918;52.092;5.232;2024-01-25T14:23:11;44.33;;;11.77;;
17598;SDS011;8918;52.092;5.232;2024-01-25T14:25:37;37.63;;;11.30;;
17598;SDS011;8918;52.092;5.232;2024-01-25T14:28:03;38.10;;;11.13;;
17598;SDS011;8918;52.092;5.232;2024-01-25T14:30:28;39.50;;;11.10;;
17598;SDS011;8918;52.092;5.232;2024-01-25T14:32:54;36.30;;;11.70;;
17598;SDS011;8918;52.092;5.232;2024-01-25T14:35:21;44.50;;;12.73;;
17598;SDS011;8918;52.092;5.232;2024-01-25T14:37:53;37.27;;;11.30;;
17598;SDS011;8918;52.092;5.232;2024-01-25T14:40:19;44.10;;;12.67;;